ADDS METAR Data INFO
IDs: Format: Raw Decoded Include TAF

Data at: 0114 UTC 20 Feb 2018

KHTL 200053Z AUTO 07007KT 7SM OVC005 02/01 A2993 RMK AO2 UPB2355E2357RAB2357E35 SLP147 P0002 T00170011
KHTL 192353Z AUTO 06009KT 6SM BR OVC006 02/01 A2991 RMK AO2 RAE50 SLP142 P0004 60018 T00170011 10044 20017 52009
KHTL 192315Z AUTO 07007KT 4SM -RA BR BKN006 OVC034 02/01 A2992 RMK AO2 P0004 T00220011
KHTL 192257Z AUTO 08010KT 2 1/2SM RA BR BKN006 OVC029 02/02 A2990 RMK AO2 P0001 T00220017
KHTL 192250Z AUTO 10008KT 1 3/4SM -RA BR BKN006 BKN025 OVC035 02/02 A2991 RMK AO2 UPE2157B08E10RAB10 SLP142 P0012 T00220017
KHTL 192249Z AUTO 10009KT 1 3/4SM -RA BR BKN006 BKN025 OVC035 02/02 A2991 RMK AO2 UPE2157B08E10RAB10 P0012
KHTL 192206Z AUTO 08008KT 1 1/4SM BR BKN005 BKN024 OVC033 02/02 A2989 RMK AO2 UPE2157 P0000 T00220017
KHTL 192153Z AUTO 08006KT 1SM UP BR FEW004 BKN024 OVC033 02/02 A2988 RMK AO2 RAB21E31UPB31 SLP133 P0002 T00220017
KHTL 192149Z AUTO 08007KT 1SM UP BR BKN024 OVC035 02/02 A2988 RMK AO2 RAB21E31UPB31 P0001
KHTL 192127Z AUTO 08005KT 1 1/2SM -RA BR BKN023 OVC034 03/01 A2990 RMK AO2 RAB21 P0000 T00280011
KHTL 192122Z AUTO 07006KT 2 1/2SM -RA BR FEW020 BKN028 OVC036 03/01 A2990 RMK AO2 RAB21 P0000 T00280011
KHTL 192118Z AUTO 08005KT 3SM BR OVC034 03/01 A2990 RMK AO2 T00280011
KHTL 192104Z AUTO 07005KT 2 1/2SM BR FEW028 OVC034 03/01 A2991 RMK AO2 T00280006
KHTL 192053Z AUTO 11006KT 4SM HZ OVC031 03/00 A2989 RMK AO2 SLP135 T00330000 55019
KHTL 191953Z AUTO 11006KT 10SM OVC048 04/M01 A2988 RMK AO2 SLP129 T00441006
KHTL 191853Z AUTO 14005KT 10SM BKN039 OVC090 04/M01 A2991 RMK AO2 SLP141 T00441006
KHTL 191753Z AUTO 15005KT 10SM OVC044 04/00 A2995 RMK AO2 SLP153 T00440000 10044 20000 53009
KHTL 191653Z AUTO 16003KT 10SM FEW044 OVC055 04/M01 A2993 RMK AO2 SLP148 T00391006
KHTL 191553Z AUTO VRB03KT 10SM OVC046 02/M01 A2991 RMK AO2 SLP141 T00221011
KHTL 191453Z AUTO 16003KT 10SM OVC046 01/M02 A2992 RMK AO2 SLP144 T00111017 50007
KHTL 191353Z AUTO 16004KT 9SM OVC050 01/M02 A2992 RMK AO2 SLP145 T00061022
KHTL 191253Z AUTO 16003KT 8SM OVC055 00/M02 A2991 RMK AO2 SLP143 T00001022
KHTL 191153Z AUTO 18007KT 9SM OVC055 00/M02 A2990 RMK AO2 SLP138 T00001022 10000 21022 58004
KHTL 191053Z AUTO 15006KT 9SM BKN050 OVC070 00/M02 A2989 RMK AO2 SLP135 T00001022
KHTL 190953Z AUTO 15004KT 8SM OVC055 M01/M03 A2992 RMK AO2 SLP144 T10061028
KHTL 190853Z AUTO 15003KT 7SM CLR M01/M03 A2991 RMK AO2 SLP142 T10111033 58019
KHTL 190753Z AUTO 16006KT 7SM BKN080 M02/M03 A2992 RMK AO2 SLP147 T10171033
KHTL 190653Z AUTO 19005KT 7SM CLR M02/M04 A2995 RMK AO2 SLP157 T10171039
KHTL 190553Z AUTO 18007G16KT 9SM CLR M01/M04 A2997 RMK AO2 SLP162 T10061039 10006 21011 53001
KHTL 190453Z AUTO 18010KT 9SM CLR M01/M04 A2996 RMK AO2 SLP159 T10061039 400221050
KHTL 190353Z AUTO 16011G19KT 10SM CLR M01/M04 A2995 RMK AO2 SLP158 T10061044
KHTL 190253Z AUTO 16014KT 10SM CLR M01/M06 A2997 RMK AO2 SLP162 T10061061 56032
KHTL 190153Z AUTO 16011G20KT 10SM CLR 00/M06 A3000 RMK AO2 SLP174 T00001056
KHTL 190053Z AUTO 16010G20KT 10SM CLR 00/M05 A3002 RMK AO2 SLP183 T00001050
KHTL 182353Z AUTO 15009KT 10SM CLR 00/M06 A3006 RMK AO2 SLP196 T00001056 10022 20000 58023
KHTL 182253Z AUTO 16013KT 10SM CLR 01/M05 A3009 RMK AO2 SLP204 T00061050
KHTL 182153Z AUTO 17010G18KT 10SM CLR 01/M05 A3012 RMK AO2 SLP214 T00111050
KHTL 182053Z AUTO 17011KT 10SM CLR 01/M06 A3013 RMK AO2 SLP219 T00111056 56024
KHTL 181953Z AUTO 18010KT 10SM SCT120 02/M07 A3014 RMK AO2 SLP222 T00171067
KHTL 181853Z AUTO 20008KT 10SM OVC090 01/M07 A3018 RMK AO2 SLP236 T00061067
KHTL 181753Z AUTO 21008KT 10SM CLR 01/M07 A3021 RMK AO2 SLP245 T00061067 10006 21050 53001
KHTL 181653Z AUTO 19009KT 10SM CLR 00/M06 A3019 RMK AO2 SLP239 T00001061
KHTL 181614Z AUTO 22010KT 10SM SCT025 M01/M07 A3020 RMK AO2 T10111067
KHTL 181553Z AUTO 19010KT 10SM BKN026 M02/M07 A3020 RMK AO2 SLP244 T10171067
KHTL 181512Z AUTO 21008KT 10SM BKN022 M02/M06 A3020 RMK AO2 T10171061
KHTL 181453Z AUTO 21008KT 10SM SCT024 M02/M06 A3020 RMK AO2 SLP244 T10221061 51016
KHTL 181404Z AUTO 19006KT 10SM SCT028 M03/M07 A3020 RMK AO2 T10331067
KHTL 181353Z AUTO 18005KT 10SM BKN028 M03/M07 A3019 RMK AO2 SLP242 T10331067
KHTL 181335Z AUTO 18004KT 10SM OVC028 M03/M07 A3018 RMK AO2 T10331067